createdAt,value
2023-05-12T00:00:12.343Z,85.76
2023-05-12T00:01:12.340Z,85.92
2023-05-12T00:02:12.341Z,85.82
2023-05-12T00:03:12.401Z,85.96
2023-05-12T00:04:12.470Z,86.16
2023-05-12T00:05:12.348Z,86.07
2023-05-12T00:06:12.387Z,86.27
2023-05-12T00:07:12.352Z,86.36
2023-05-12T00:08:12.354Z,86.27
2023-05-12T00:09:12.351Z,86.27
2023-05-12T00:10:12.361Z,86.16
2023-05-12T00:11:12.346Z,86.27
2023-05-12T00:12:12.345Z,86.53
2023-05-12T00:13:12.421Z,86.47
2023-05-12T00:14:12.349Z,86.27
2023-05-12T00:15:12.348Z,86.36
2023-05-12T00:16:12.399Z,85.76
2023-05-12T00:17:12.349Z,86.16
2023-05-12T00:18:12.354Z,85.96
2023-05-12T00:19:12.380Z,86.47
2023-05-12T00:20:12.352Z,86.41
2023-05-12T00:21:12.356Z,86.07
2023-05-12T00:22:12.390Z,86.57
2023-05-12T00:23:12.362Z,86.30
2023-05-12T00:24:12.358Z,86.27
2023-05-12T00:25:12.355Z,86.07
2023-05-12T00:26:12.350Z,86.07
2023-05-12T00:27:12.353Z,85.56
2023-05-12T00:28:12.357Z,86.36
2023-05-12T00:29:12.369Z,86.36
2023-05-12T00:30:12.354Z,85.66
2023-05-12T00:31:12.396Z,85.70
2023-05-12T00:32:12.366Z,86.07
2023-05-12T00:33:12.375Z,86.16
2023-05-12T00:34:12.361Z,85.66
2023-05-12T00:35:12.361Z,86.30
2023-05-12T00:36:12.365Z,86.51
2023-05-12T00:37:12.363Z,86.10
2023-05-12T00:38:12.386Z,86.30
2023-05-12T00:39:12.370Z,86.30
2023-05-12T00:40:12.361Z,86.10
2023-05-12T00:41:12.369Z,86.51
2023-05-12T00:42:12.368Z,86.10
2023-05-12T00:43:12.373Z,86.51
2023-05-12T00:44:12.368Z,86.30
2023-05-12T00:45:12.391Z,86.51
2023-05-12T00:46:12.390Z,86.10
2023-05-12T00:47:12.377Z,86.51
2023-05-12T00:48:12.415Z,86.71
2023-05-12T00:49:12.375Z,86.21
2023-05-12T00:50:12.374Z,86.21
2023-05-12T00:51:12.375Z,86.00
2023-05-12T00:52:12.374Z,86.27
2023-05-12T00:53:12.375Z,86.10
2023-05-12T00:54:12.403Z,86.21
2023-05-12T00:55:12.388Z,86.00
2023-05-12T00:56:12.377Z,86.21
2023-05-12T00:57:12.381Z,86.41
2023-05-12T00:58:12.373Z,86.41
2023-05-12T00:59:12.376Z,86.21
2023-05-12T01:00:12.381Z,86.21
2023-05-12T01:01:12.431Z,86.30
2023-05-12T01:02:12.418Z,86.55
2023-05-12T01:03:12.462Z,86.45
2023-05-12T01:04:12.379Z,86.25
2023-05-12T01:05:12.388Z,86.65
2023-05-12T01:06:12.389Z,86.85
2023-05-12T01:07:12.401Z,86.75
2023-05-12T01:08:12.394Z,87.40
2023-05-12T01:09:12.385Z,87.40
2023-05-12T01:10:12.411Z,87.30
2023-05-12T01:11:12.406Z,87.30
2023-05-12T01:12:12.392Z,87.60
2023-05-12T01:13:12.385Z,87.50
2023-05-12T01:14:12.394Z,87.60
2023-05-12T01:15:12.386Z,87.60
2023-05-12T01:16:12.389Z,87.50
2023-05-12T01:17:12.422Z,87.81
2023-05-12T01:18:12.425Z,87.50
2023-05-12T01:19:12.448Z,87.60
2023-05-12T01:20:12.411Z,87.95
2023-05-12T01:21:12.395Z,87.90
2023-05-12T01:22:12.388Z,87.81
2023-05-12T01:23:12.394Z,88.35
2023-05-12T01:24:12.390Z,88.41
2023-05-12T01:25:12.396Z,88.21
2023-05-12T01:26:12.409Z,88.35
2023-05-12T01:27:12.398Z,88.25
2023-05-12T01:28:12.393Z,88.25
2023-05-12T01:29:12.404Z,88.65
2023-05-12T01:30:12.401Z,88.85
2023-05-12T01:31:12.448Z,88.35
2023-05-12T01:32:12.394Z,88.25
2023-05-12T01:33:12.402Z,88.75
2023-05-12T01:34:12.414Z,88.25
2023-05-12T01:35:12.399Z,88.25
2023-05-12T01:36:12.409Z,88.65
2023-05-12T01:37:12.394Z,88.55
2023-05-12T01:38:12.398Z,88.65
2023-05-12T01:39:12.395Z,88.25
2023-05-12T01:40:12.398Z,88.65
2023-05-12T01:41:12.401Z,88.96
2023-05-12T01:42:12.416Z,88.75
2023-05-12T01:43:12.400Z,88.85
2023-05-12T01:44:12.394Z,89.30
2023-05-12T01:45:12.400Z,88.59
2023-05-12T01:46:12.432Z,88.90
2023-05-12T01:47:12.408Z,89.30
2023-05-12T01:48:12.403Z,88.65
2023-05-12T01:49:12.401Z,89.30
2023-05-12T01:50:12.397Z,89.10
2023-05-12T01:51:12.398Z,88.79
2023-05-12T01:52:12.393Z,88.90
2023-05-12T01:53:12.403Z,88.79
2023-05-12T01:54:12.400Z,89.20
2023-05-12T01:55:12.412Z,89.30
2023-05-12T01:56:12.403Z,89.54
2023-05-12T01:57:12.405Z,89.54
2023-05-12T01:58:12.420Z,89.34
2023-05-12T01:59:12.451Z,89.65
2023-05-12T02:00:12.398Z,89.79
2023-05-12T02:01:12.429Z,89.79
2023-05-12T02:02:12.636Z,89.75
2023-05-12T02:03:12.484Z,89.79
2023-05-12T02:04:12.517Z,89.89
2023-05-12T02:05:12.398Z,89.75
2023-05-12T02:06:12.411Z,90.40
2023-05-12T02:07:12.408Z,90.60
2023-05-12T02:08:12.445Z,90.50
2023-05-12T02:09:12.429Z,90.40
2023-05-12T02:10:12.417Z,91.20
2023-05-12T02:11:12.400Z,90.95
2023-05-12T02:12:12.423Z,90.95
2023-05-12T02:13:12.415Z,91.05
2023-05-12T02:14:12.448Z,91.25
2023-05-12T02:15:12.418Z,91.09
2023-05-12T02:16:12.453Z,91.75
2023-05-12T02:17:12.427Z,91.46
2023-05-12T02:18:12.412Z,91.35
2023-05-12T02:19:12.443Z,91.70
2023-05-12T02:20:12.559Z,91.80
2023-05-12T02:21:12.411Z,91.80
2023-05-12T02:22:12.405Z,91.15
2023-05-12T02:23:12.449Z,91.15
2023-05-12T02:24:14.694Z,90.99
2023-05-12T02:25:12.417Z,90.99
2023-05-12T02:26:12.405Z,91.30
2023-05-12T02:27:12.407Z,91.09
2023-05-12T02:28:12.416Z,91.30
2023-05-12T02:29:12.411Z,91.80
2023-05-12T02:30:12.443Z,91.80
2023-05-12T02:31:12.407Z,91.50
2023-05-12T02:32:12.617Z,92.10
2023-05-12T02:33:12.422Z,91.34
2023-05-12T02:34:12.412Z,92.14
2023-05-12T02:35:12.416Z,92.21
2023-05-12T02:36:12.408Z,91.94
2023-05-12T02:37:12.416Z,92.14
2023-05-12T02:38:12.433Z,92.05
2023-05-12T02:39:12.409Z,91.94
2023-05-12T02:40:12.417Z,92.25
2023-05-12T02:41:12.429Z,92.14
2023-05-12T02:42:12.412Z,92.14
2023-05-12T02:43:12.411Z,91.94
2023-05-12T02:44:12.409Z,92.14
2023-05-12T02:45:12.414Z,92.35
2023-05-12T02:46:12.499Z,92.14
2023-05-12T02:47:12.415Z,92.49
2023-05-12T02:48:12.423Z,93.00
2023-05-12T02:49:12.415Z,93.21
2023-05-12T02:50:12.413Z,93.35
2023-05-12T02:51:12.421Z,93.21
2023-05-12T02:52:12.416Z,93.30
2023-05-12T02:53:12.421Z,93.25
2023-05-12T02:54:12.427Z,93.15
2023-05-12T02:55:12.423Z,93.05
2023-05-12T02:56:12.415Z,92.74
2023-05-12T02:57:12.419Z,92.74
2023-05-12T02:58:12.428Z,93.15
2023-05-12T02:59:12.415Z,93.05
2023-05-12T03:00:12.426Z,93.15
2023-05-12T03:01:12.478Z,92.74
2023-05-12T03:02:12.592Z,92.84
2023-05-12T03:03:12.480Z,92.84
2023-05-12T03:04:12.413Z,93.05
2023-05-12T03:05:12.428Z,92.94
2023-05-12T03:06:12.417Z,92.94
2023-05-12T03:07:12.422Z,93.45
2023-05-12T03:08:12.423Z,93.35
2023-05-12T03:09:12.433Z,93.35
2023-05-12T03:10:12.433Z,93.55
2023-05-12T03:11:12.423Z,93.55
2023-05-12T03:12:12.481Z,93.45
2023-05-12T03:13:12.440Z,93.45
2023-05-12T03:14:12.423Z,93.55
2023-05-12T03:15:12.431Z,93.80
2023-05-12T03:16:12.424Z,93.65
2023-05-12T03:17:12.462Z,94.00
2023-05-12T03:18:12.513Z,93.90
2023-05-12T03:19:12.500Z,93.90
2023-05-12T03:20:12.436Z,94.00
2023-05-12T03:21:12.425Z,94.10
2023-05-12T03:22:12.421Z,94.31
2023-05-12T03:23:12.417Z,94.21
2023-05-12T03:24:12.418Z,94.10
2023-05-12T03:25:12.432Z,94.10
2023-05-12T03:26:12.422Z,94.10
2023-05-12T03:27:12.429Z,94.51
2023-05-12T03:28:12.427Z,94.71
2023-05-12T03:29:12.421Z,94.61
2023-05-12T03:30:12.417Z,94.76
2023-05-12T03:31:12.448Z,94.96
2023-05-12T03:32:12.422Z,94.76
2023-05-12T03:33:12.442Z,95.57
2023-05-12T03:34:12.443Z,94.96
2023-05-12T03:35:12.416Z,94.82
2023-05-12T03:36:12.415Z,94.45
2023-05-12T03:37:12.424Z,94.45
2023-05-12T03:38:12.419Z,94.76
2023-05-12T03:39:12.420Z,94.41
2023-05-12T03:40:12.426Z,95.67
2023-05-12T03:41:12.427Z,95.73
2023-05-12T03:42:12.422Z,95.87
2023-05-12T03:43:12.417Z,95.67
2023-05-12T03:44:12.425Z,95.57
2023-05-12T03:45:12.428Z,95.47
2023-05-12T03:46:12.532Z,95.57
2023-05-12T03:47:12.562Z,95.47
2023-05-12T03:48:12.505Z,95.57
2023-05-12T03:49:12.426Z,95.37
2023-05-12T03:50:12.493Z,95.37
2023-05-12T03:51:12.428Z,95.47
2023-05-12T03:52:12.423Z,95.57
2023-05-12T03:53:12.418Z,95.47
2023-05-12T03:54:12.418Z,95.57
2023-05-12T03:55:12.418Z,95.47
2023-05-12T03:56:12.413Z,95.47
2023-05-12T03:57:12.428Z,95.53
2023-05-12T03:58:12.427Z,95.42
2023-05-12T03:59:12.417Z,95.63
2023-05-12T04:00:12.422Z,95.63
2023-05-12T04:01:12.424Z,95.07
2023-05-12T04:02:12.440Z,95.58
2023-05-12T04:03:12.449Z,94.87
2023-05-12T04:04:12.459Z,95.38
2023-05-12T04:05:12.417Z,95.18
2023-05-12T04:06:12.438Z,95.18
2023-05-12T04:07:12.424Z,95.58
2023-05-12T04:08:12.422Z,95.18
2023-05-12T04:09:12.413Z,95.38
2023-05-12T04:10:12.421Z,95.38
2023-05-12T04:11:12.425Z,95.68
2023-05-12T04:12:12.428Z,95.68
2023-05-12T04:13:12.414Z,94.06
2023-05-12T04:14:12.418Z,94.67
2023-05-12T04:15:12.425Z,95.48
2023-05-12T04:16:12.467Z,95.58
2023-05-12T04:17:12.436Z,95.34
2023-05-12T04:18:12.444Z,94.83
2023-05-12T04:19:12.416Z,94.53
2023-05-12T04:20:12.430Z,94.53
2023-05-12T04:21:12.423Z,95.34
2023-05-12T04:22:12.428Z,95.54
2023-05-12T04:23:12.412Z,95.43
2023-05-12T04:24:12.425Z,94.93
2023-05-12T04:25:12.416Z,94.83
2023-05-12T04:26:12.415Z,94.83
2023-05-12T04:27:12.410Z,94.48
2023-05-12T04:28:12.461Z,94.58
2023-05-12T04:29:12.413Z,94.07
2023-05-12T04:30:12.421Z,94.07
2023-05-12T04:31:12.412Z,94.13
2023-05-12T04:32:12.451Z,93.12
2023-05-12T04:33:12.427Z,93.16
2023-05-12T04:34:12.411Z,93.42
2023-05-12T04:35:12.412Z,92.36
2023-05-12T04:36:12.414Z,92.21
2023-05-12T04:37:12.422Z,92.82
2023-05-12T04:38:12.435Z,92.47
2023-05-12T04:39:12.424Z,92.97
2023-05-12T04:40:12.446Z,92.67
2023-05-12T04:41:12.425Z,92.77
2023-05-12T04:42:12.419Z,92.87
2023-05-12T04:43:59.899Z,92.77
2023-05-12T04:44:12.422Z,92.93
2023-05-12T04:45:12.422Z,92.87
2023-05-12T04:46:12.453Z,92.52
2023-05-12T04:47:12.415Z,92.32
2023-05-12T04:48:12.411Z,93.23
2023-05-12T04:49:12.460Z,92.47
2023-05-12T04:50:12.418Z,92.52
2023-05-12T04:51:12.416Z,92.93
2023-05-12T04:52:12.420Z,92.22
2023-05-12T04:53:12.412Z,92.18
2023-05-12T04:54:12.558Z,92.38
2023-05-12T04:55:12.437Z,92.22
2023-05-12T04:56:12.418Z,92.79
2023-05-12T04:57:12.416Z,92.68
2023-05-12T04:58:12.418Z,92.28
2023-05-12T04:59:12.414Z,91.97
2023-05-12T05:00:12.423Z,91.83
2023-05-12T05:01:12.524Z,91.83
2023-05-12T05:02:12.463Z,91.93
2023-05-12T05:03:12.585Z,91.02
2023-05-12T05:04:12.421Z,90.82
2023-05-12T05:05:12.412Z,90.27
2023-05-12T05:06:12.419Z,90.01
2023-05-12T05:07:12.414Z,89.81
2023-05-12T05:08:12.417Z,89.87
2023-05-12T05:09:12.415Z,90.67
2023-05-12T05:10:12.431Z,89.76
2023-05-12T05:11:12.425Z,89.56
2023-05-12T05:12:12.434Z,89.76
2023-05-12T05:13:12.418Z,90.27
2023-05-12T05:14:12.419Z,90.07
2023-05-12T05:15:12.428Z,90.07
2023-05-12T05:16:12.455Z,89.26
2023-05-12T05:17:12.413Z,89.26
2023-05-12T05:18:12.444Z,89.42
2023-05-12T05:19:21.808Z,89.52
2023-05-12T05:20:15.071Z,89.22
2023-05-12T05:21:12.448Z,89.83
2023-05-12T05:22:12.420Z,89.32
2023-05-12T05:23:12.420Z,89.32
2023-05-12T05:24:12.420Z,89.01
2023-05-12T05:25:12.421Z,88.92
2023-05-12T05:26:12.448Z,88.97
2023-05-12T05:27:12.413Z,88.67
2023-05-12T05:28:12.423Z,89.17
2023-05-12T05:29:12.411Z,88.53
2023-05-12T05:30:12.417Z,88.23
2023-05-12T05:31:12.464Z,88.02
2023-05-12T05:32:12.442Z,88.43
2023-05-12T05:33:12.421Z,88.12
2023-05-12T05:34:12.482Z,88.23
2023-05-12T05:35:12.412Z,87.52
2023-05-12T05:36:12.418Z,88.18
2023-05-12T05:37:12.416Z,87.78
2023-05-12T05:38:12.413Z,88.28
2023-05-12T05:39:12.419Z,88.18
2023-05-12T05:40:12.446Z,88.04
2023-05-12T05:41:12.413Z,87.34
2023-05-12T05:42:12.456Z,87.94
2023-05-12T05:43:12.412Z,86.53
2023-05-12T05:44:12.426Z,86.53
2023-05-12T05:45:12.421Z,87.13
2023-05-12T05:46:12.452Z,86.49
2023-05-12T05:47:12.460Z,86.22
2023-05-12T05:48:12.425Z,86.89
2023-05-12T05:49:12.421Z,86.29
2023-05-12T05:50:12.418Z,85.88
2023-05-12T05:51:12.433Z,85.88
2023-05-12T05:52:12.418Z,85.94
2023-05-12T05:53:12.418Z,85.08
2023-05-12T05:54:12.425Z,85.44
2023-05-12T05:55:12.413Z,84.33
2023-05-12T05:56:12.415Z,84.53
2023-05-12T05:57:12.424Z,84.53
2023-05-12T05:58:12.495Z,84.49
2023-05-12T05:59:12.422Z,84.09
2023-05-12T06:00:12.446Z,85.16
2023-05-12T06:01:12.416Z,84.35
2023-05-12T06:02:12.505Z,84.25
2023-05-12T06:03:12.471Z,84.41
2023-05-12T06:04:12.466Z,83.81
2023-05-12T06:05:14.142Z,84.41
2023-05-12T06:06:12.419Z,83.91
2023-05-12T06:07:12.418Z,83.76
2023-05-12T06:08:12.419Z,84.67
2023-05-12T06:09:12.424Z,83.97
2023-05-12T06:10:12.425Z,83.06
2023-05-12T06:11:12.426Z,82.60
2023-05-12T06:12:12.421Z,82.80
2023-05-12T06:13:12.413Z,82.46
2023-05-12T06:14:12.461Z,82.46
2023-05-12T06:15:12.420Z,82.26
2023-05-12T06:16:12.441Z,82.76
2023-05-12T06:17:12.421Z,82.36
2023-05-12T06:18:12.455Z,82.62
2023-05-12T06:19:12.541Z,82.52
2023-05-12T06:20:12.425Z,82.72
2023-05-12T06:21:12.426Z,82.28
2023-05-12T06:22:12.420Z,82.38
2023-05-12T06:23:12.424Z,81.88
2023-05-12T06:24:12.428Z,81.38
2023-05-12T06:25:12.426Z,81.78
2023-05-12T06:26:12.446Z,80.98
2023-05-12T06:27:12.433Z,81.38
2023-05-12T06:28:12.433Z,81.18
2023-05-12T06:29:12.420Z,81.27
2023-05-12T06:30:14.961Z,81.24
2023-05-12T06:31:12.440Z,81.04
2023-05-12T06:32:12.463Z,81.44
2023-05-12T06:33:12.444Z,82.00
2023-05-12T06:34:12.436Z,81.00
2023-05-12T06:35:12.425Z,80.19
2023-05-12T06:36:12.435Z,80.66
2023-05-12T06:37:12.429Z,81.46
2023-05-12T06:38:12.431Z,80.16
2023-05-12T06:39:12.441Z,79.96
2023-05-12T06:40:12.432Z,80.22
2023-05-12T06:41:12.448Z,79.62
2023-05-12T06:42:12.492Z,79.92
2023-05-12T06:43:12.441Z,80.52
2023-05-12T06:44:12.440Z,80.22
2023-05-12T06:45:12.455Z,78.92
2023-05-12T06:46:12.515Z,79.12
2023-05-12T06:47:12.444Z,79.58
2023-05-12T06:48:12.531Z,79.28
2023-05-12T06:49:12.439Z,79.14
2023-05-12T06:50:12.452Z,79.30
2023-05-12T06:51:12.443Z,79.64
2023-05-12T06:52:12.445Z,79.41
2023-05-12T06:53:12.445Z,79.41
2023-05-12T06:54:12.453Z,78.77
2023-05-12T06:55:12.449Z,77.60
2023-05-12T06:56:12.452Z,77.86
2023-05-12T06:57:12.445Z,78.06
2023-05-12T06:58:12.445Z,77.86
2023-05-12T06:59:12.445Z,77.47
2023-05-12T07:00:12.453Z,77.67
2023-05-12T07:01:12.464Z,78.03
2023-05-12T07:02:12.476Z,77.13
2023-05-12T07:03:12.575Z,77.23
2023-05-12T07:04:12.518Z,77.69
2023-05-12T07:05:12.450Z,77.79
2023-05-12T07:06:12.497Z,77.99
2023-05-12T07:07:12.451Z,77.56
2023-05-12T07:08:12.464Z,77.82
2023-05-12T07:09:12.456Z,77.32
2023-05-12T07:10:12.460Z,76.08
2023-05-12T07:11:12.457Z,76.75
2023-05-12T07:12:12.513Z,76.18
2023-05-12T07:13:12.457Z,76.38
2023-05-12T07:14:12.468Z,75.98
2023-05-12T07:15:12.448Z,76.98
2023-05-12T07:16:12.509Z,76.88
2023-05-12T07:17:12.461Z,76.65
2023-05-12T07:18:12.569Z,75.25
2023-05-12T07:19:12.568Z,74.91
2023-05-12T07:20:12.468Z,75.11
2023-05-12T07:21:12.466Z,74.48
2023-05-12T07:22:12.474Z,75.57
2023-05-12T07:23:12.465Z,76.14
2023-05-12T07:24:12.472Z,75.34
2023-05-12T07:25:12.477Z,74.51
2023-05-12T07:26:12.482Z,75.20
2023-05-12T07:27:12.472Z,73.91
2023-05-12T07:28:12.487Z,74.30
2023-05-12T07:29:13.815Z,74.57
2023-05-12T07:30:12.490Z,72.64
2023-05-12T07:31:12.494Z,71.45
2023-05-12T07:32:12.473Z,70.48
2023-05-12T07:33:12.544Z,70.65
2023-05-12T07:34:12.574Z,70.72
2023-05-12T07:35:12.477Z,68.37
2023-05-12T07:36:12.478Z,68.90
2023-05-12T07:37:12.485Z,67.24
2023-05-12T07:38:12.505Z,67.21
2023-05-12T07:39:12.489Z,66.29
2023-05-12T07:40:12.488Z,66.22
2023-05-12T07:41:12.495Z,66.33
2023-05-12T07:42:12.493Z,65.30
2023-05-12T07:43:12.500Z,64.32
2023-05-12T07:44:12.497Z,64.55
2023-05-12T07:45:12.504Z,64.59
2023-05-12T07:46:12.503Z,63.77
2023-05-12T07:47:12.559Z,61.90
2023-05-12T07:48:12.595Z,62.06
2023-05-12T07:49:12.511Z,62.82
2023-05-12T07:50:12.585Z,62.13
2023-05-12T07:51:12.521Z,60.52
2023-05-12T07:52:12.516Z,62.43
2023-05-12T07:53:12.516Z,61.48
2023-05-12T07:54:12.527Z,60.69
2023-05-12T07:55:12.538Z,59.05
2023-05-12T07:56:12.529Z,60.60
2023-05-12T07:57:12.552Z,60.89
2023-05-12T07:58:12.538Z,60.17
2023-05-12T07:59:12.540Z,60.82
2023-05-12T08:00:12.554Z,61.65
2023-05-12T08:01:12.551Z,59.09
2023-05-12T08:02:12.627Z,59.09
2023-05-12T08:03:12.642Z,59.09
2023-05-12T08:04:12.619Z,58.94
2023-05-12T08:05:12.575Z,58.84
2023-05-12T08:06:12.666Z,58.91
2023-05-12T08:07:12.582Z,57.59
2023-05-12T08:08:12.598Z,58.86
2023-05-12T08:09:12.601Z,58.94
2023-05-12T08:10:12.609Z,58.32
2023-05-12T08:11:12.693Z,58.42
2023-05-12T08:12:12.626Z,58.39
2023-05-12T08:13:12.626Z,58.00
2023-05-12T08:14:12.641Z,55.51
2023-05-12T08:15:12.656Z,56.13
2023-05-12T08:16:12.653Z,56.74
2023-05-12T08:17:12.715Z,57.04
2023-05-12T08:18:12.723Z,56.87
2023-05-12T08:19:12.771Z,58.05
2023-05-12T08:20:12.688Z,58.42
2023-05-12T08:21:12.699Z,57.90
2023-05-12T08:22:12.777Z,57.80
2023-05-12T08:23:12.719Z,58.33
2023-05-12T08:24:12.734Z,56.67
2023-05-12T08:25:12.957Z,57.77
2023-05-12T08:26:12.749Z,56.24
2023-05-12T08:27:12.760Z,55.80
2023-05-12T08:28:12.845Z,55.31
2023-05-12T08:29:12.791Z,54.72
2023-05-12T08:30:12.800Z,55.07
2023-05-12T08:31:12.908Z,56.71
2023-05-12T08:32:12.810Z,55.70
2023-05-12T08:33:12.831Z,54.46
2023-05-12T08:34:12.848Z,54.60
2023-05-12T08:35:12.920Z,54.69
2023-05-12T08:36:12.870Z,54.99
2023-05-12T08:37:12.878Z,55.08
2023-05-12T08:38:13.047Z,54.79
2023-05-12T08:39:12.900Z,54.08
2023-05-12T08:40:12.916Z,54.22
2023-05-12T08:41:12.935Z,53.34
2023-05-12T08:42:12.943Z,53.54
2023-05-12T08:43:12.965Z,53.22
2023-05-12T08:44:12.989Z,53.44
2023-05-12T08:45:13.063Z,53.09
2023-05-12T08:46:13.044Z,53.29
2023-05-12T08:47:13.018Z,52.31
2023-05-12T08:48:13.048Z,51.88
2023-05-12T08:49:13.051Z,51.49
2023-05-12T08:50:13.066Z,52.56
2023-05-12T08:51:13.211Z,51.90
2023-05-12T08:52:13.341Z,52.49
2023-05-12T08:53:13.105Z,53.08
2023-05-12T08:54:13.195Z,51.61
2023-05-12T08:55:13.240Z,52.34
2023-05-12T08:57:13.175Z,53.59
2023-05-12T08:58:13.187Z,50.73
2023-05-12T08:59:13.209Z,51.25
2023-05-12T09:00:13.220Z,51.17
2023-05-12T09:01:13.358Z,51.07
2023-05-12T09:02:13.391Z,52.22
2023-05-12T09:03:13.301Z,50.68
2023-05-12T09:04:13.372Z,50.81
2023-05-12T09:05:13.424Z,52.64
2023-05-12T09:06:13.309Z,51.95
2023-05-12T09:07:13.329Z,50.16
2023-05-12T09:08:13.344Z,50.29
2023-05-12T09:09:13.361Z,50.73
2023-05-12T09:10:19.785Z,50.07
2023-05-12T09:11:13.422Z,50.04
2023-05-12T09:12:14.967Z,50.38
2023-05-12T09:13:13.435Z,48.93
2023-05-12T09:14:13.455Z,50.75
2023-05-12T09:15:13.471Z,48.36
2023-05-12T09:16:13.513Z,48.07
2023-05-12T09:17:13.503Z,48.02
2023-05-12T09:18:13.520Z,48.19
2023-05-12T09:19:13.624Z,48.10
2023-05-12T09:20:27.960Z,48.36
2023-05-12T09:21:13.583Z,48.68
2023-05-12T09:22:13.598Z,48.46
2023-05-12T09:23:13.617Z,46.23
2023-05-12T09:24:13.637Z,47.73
2023-05-12T09:25:14.694Z,48.61
2023-05-12T09:26:13.745Z,48.07
2023-05-12T09:27:13.706Z,47.75
2023-05-12T09:28:13.722Z,47.83
2023-05-12T09:29:21.237Z,47.42
2023-05-12T09:30:13.766Z,46.39
2023-05-12T09:31:14.729Z,48.00
2023-05-12T09:32:13.795Z,47.53
2023-05-12T09:33:13.888Z,48.02
2023-05-12T09:34:13.835Z,48.29
2023-05-12T09:35:13.865Z,48.12
2023-05-12T09:36:13.877Z,48.93
2023-05-12T09:37:15.386Z,48.55
2023-05-12T09:38:13.920Z,49.02
2023-05-12T09:39:13.947Z,48.44
2023-05-12T09:40:13.969Z,48.88
2023-05-12T09:41:13.988Z,47.36
2023-05-12T09:42:14.168Z,46.00
2023-05-12T09:43:15.687Z,47.85
2023-05-12T09:44:14.049Z,47.66
2023-05-12T09:45:14.074Z,46.61
2023-05-12T09:46:14.129Z,46.31
2023-05-12T09:47:14.113Z,46.73
2023-05-12T09:48:14.355Z,46.44
2023-05-12T09:49:14.160Z,46.61
2023-05-12T09:50:14.178Z,48.54
2023-05-12T09:51:14.202Z,46.15
2023-05-12T09:52:14.227Z,46.59
2023-05-12T09:53:14.243Z,47.44
2023-05-12T09:54:14.272Z,46.69
2023-05-12T09:55:14.304Z,46.69
2023-05-12T09:56:14.312Z,46.78
2023-05-12T09:57:14.342Z,46.73
2023-05-12T09:58:14.582Z,48.32
2023-05-12T09:59:14.381Z,47.41
2023-05-12T10:00:31.356Z,49.68
2023-05-12T10:01:22.541Z,49.22
2023-05-12T10:02:14.497Z,46.59
2023-05-12T10:03:14.618Z,47.66
2023-05-12T10:04:14.525Z,46.86
2023-05-12T10:05:14.558Z,46.61
2023-05-12T10:06:14.545Z,48.07
2023-05-12T10:07:14.551Z,48.22
2023-05-12T10:08:14.575Z,46.54
2023-05-12T10:09:14.607Z,46.76
2023-05-12T10:10:14.621Z,48.17
2023-05-12T10:11:14.735Z,47.95
2023-05-12T10:12:14.684Z,48.24
2023-05-12T10:13:14.691Z,47.85
2023-05-12T10:14:14.748Z,47.41
2023-05-12T10:15:14.755Z,48.07
2023-05-12T10:16:14.798Z,48.07
2023-05-12T10:17:14.793Z,48.32
2023-05-12T10:18:14.848Z,49.61
2023-05-12T10:19:15.054Z,49.33
2023-05-12T10:20:14.860Z,48.16
2023-05-12T10:21:14.898Z,48.63
2023-05-12T10:22:14.907Z,48.61
2023-05-12T10:23:14.948Z,50.48
2023-05-12T10:24:14.964Z,46.47
2023-05-12T10:25:14.978Z,47.92
2023-05-12T10:26:15.015Z,47.63
2023-05-12T10:27:15.026Z,47.83
2023-05-12T10:28:15.048Z,46.69
2023-05-12T10:29:15.084Z,47.27
2023-05-12T10:30:15.158Z,47.97
2023-05-12T10:31:15.170Z,48.73
2023-05-12T10:32:15.145Z,47.61
2023-05-12T10:33:15.186Z,48.05
2023-05-12T10:34:15.198Z,46.94
2023-05-12T10:35:15.239Z,45.84
2023-05-12T10:36:15.248Z,45.88
2023-05-12T10:37:15.263Z,46.86
2023-05-12T10:38:15.303Z,47.61
2023-05-12T10:39:15.327Z,46.42
2023-05-12T10:40:15.452Z,48.02
2023-05-12T10:41:15.371Z,47.92
2023-05-12T10:42:15.405Z,48.97
2023-05-12T10:43:15.444Z,48.90
2023-05-12T10:44:15.441Z,47.78
2023-05-12T10:45:15.472Z,48.05
2023-05-12T10:46:15.643Z,47.86
2023-05-12T10:47:15.514Z,46.50
2023-05-12T10:48:15.535Z,48.49
2023-05-12T10:49:15.577Z,48.75
2023-05-12T10:50:15.615Z,47.76
2023-05-12T10:51:15.619Z,49.73
2023-05-12T10:52:15.647Z,47.39
2023-05-12T10:53:15.670Z,46.42
2023-05-12T10:54:15.684Z,45.89
2023-05-12T10:55:15.899Z,46.57
2023-05-12T10:56:16.038Z,46.88
2023-05-12T10:57:18.400Z,46.13
2023-05-12T10:58:16.194Z,47.59
2023-05-12T10:59:16.164Z,47.20
2023-05-12T11:00:16.430Z,48.20
2023-05-12T11:01:16.473Z,46.31
2023-05-12T11:02:16.864Z,46.43
2023-05-12T11:03:17.074Z,45.47
2023-05-12T11:04:16.288Z,45.68
2023-05-12T11:05:16.402Z,45.89
2023-05-12T11:06:16.925Z,44.46
2023-05-12T11:07:16.647Z,45.17
2023-05-12T11:08:17.587Z,45.79
2023-05-12T11:09:17.454Z,47.23
2023-05-12T11:10:17.559Z,47.38
2023-05-12T11:11:16.170Z,47.18
2023-05-12T11:12:16.145Z,45.39
2023-05-12T11:13:16.204Z,45.04
2023-05-12T11:14:16.219Z,46.81
2023-05-12T11:15:18.109Z,46.31
2023-05-12T11:16:16.298Z,46.23
2023-05-12T11:17:16.283Z,47.28
2023-05-12T11:18:16.443Z,45.92
2023-05-12T11:19:16.329Z,45.07
2023-05-12T11:20:16.352Z,46.08
2023-05-12T11:21:16.394Z,46.66
2023-05-12T11:22:16.413Z,47.44
2023-05-12T11:23:16.452Z,47.42
2023-05-12T11:24:16.466Z,48.12
2023-05-12T11:25:16.550Z,47.90
2023-05-12T11:26:16.516Z,46.95
2023-05-12T11:27:16.540Z,46.64
2023-05-12T11:28:16.575Z,45.72
2023-05-12T11:29:16.595Z,44.84
2023-05-12T11:30:16.614Z,46.98
2023-05-12T11:31:16.654Z,45.40
2023-05-12T11:32:16.672Z,44.67
2023-05-12T11:33:16.733Z,44.79
2023-05-12T11:34:16.771Z,44.38
2023-05-12T11:35:16.759Z,44.87
2023-05-12T11:36:16.785Z,44.46
2023-05-12T11:37:16.812Z,46.28
2023-05-12T11:38:16.828Z,45.75
2023-05-12T11:39:16.856Z,44.78
2023-05-12T11:40:16.880Z,44.87
2023-05-12T11:41:16.909Z,45.24
2023-05-12T11:42:18.857Z,43.92
2023-05-12T11:43:16.983Z,44.99
2023-05-12T11:44:16.990Z,45.55
2023-05-12T11:45:17.036Z,45.94
2023-05-12T11:46:17.069Z,46.58
2023-05-12T11:47:17.144Z,43.95
2023-05-12T11:48:17.132Z,44.85
2023-05-12T11:49:17.123Z,44.27
2023-05-12T11:50:17.226Z,43.90
2023-05-12T11:51:17.179Z,44.21
2023-05-12T11:52:17.233Z,44.38
2023-05-12T11:53:17.226Z,44.24
2023-05-12T11:54:17.260Z,44.00
2023-05-12T11:55:17.321Z,45.50
2023-05-12T11:56:17.312Z,46.20
2023-05-12T11:57:17.336Z,45.23
2023-05-12T11:58:17.382Z,45.36
2023-05-12T11:59:17.392Z,44.38
2023-05-12T12:00:17.420Z,43.74
2023-05-12T12:01:17.438Z,45.65
2023-05-12T12:02:17.479Z,44.54
2023-05-12T12:03:17.718Z,44.16
2023-05-12T12:04:17.592Z,44.40
2023-05-12T12:05:17.666Z,45.27
2023-05-12T12:06:17.739Z,45.13
2023-05-12T12:07:17.597Z,43.99
2023-05-12T12:08:17.641Z,44.71
2023-05-12T12:09:17.656Z,44.27
2023-05-12T12:10:17.715Z,44.97
2023-05-12T12:11:17.715Z,44.95
2023-05-12T12:12:17.755Z,45.31
2023-05-12T12:13:17.769Z,43.04
2023-05-12T12:14:17.786Z,42.17
2023-05-12T12:15:17.950Z,42.85
2023-05-12T12:16:17.895Z,44.13
2023-05-12T12:17:17.878Z,43.46
2023-05-12T12:18:17.906Z,43.19
2023-05-12T12:19:17.929Z,43.99
2023-05-12T12:20:17.951Z,44.26
2023-05-12T12:21:18.987Z,43.85
2023-05-12T12:22:18.029Z,43.46
2023-05-12T12:23:18.036Z,43.82
2023-05-12T12:24:18.060Z,43.51
2023-05-12T12:25:18.510Z,43.82
2023-05-12T12:26:18.120Z,44.57
2023-05-12T12:27:18.142Z,43.91
2023-05-12T12:28:18.169Z,45.71
2023-05-12T12:29:18.210Z,43.47
2023-05-12T12:30:18.225Z,43.15
2023-05-12T12:31:18.289Z,45.42
2023-05-12T12:32:18.277Z,45.04
2023-05-12T12:33:20.569Z,45.94
2023-05-12T12:34:18.323Z,45.74
2023-05-12T12:35:18.466Z,44.38
2023-05-12T12:36:18.384Z,43.01
2023-05-12T12:37:18.408Z,44.24
2023-05-12T12:38:18.551Z,44.85
2023-05-12T12:39:20.010Z,44.46
2023-05-12T12:40:18.488Z,44.09
2023-05-12T12:41:18.513Z,43.95
2023-05-12T12:42:18.542Z,44.81
2023-05-12T12:43:18.566Z,45.29
2023-05-12T12:44:18.596Z,45.98
2023-05-12T12:45:20.443Z,45.06
2023-05-12T12:46:18.688Z,44.45
2023-05-12T12:47:18.748Z,45.87
2023-05-12T12:48:18.703Z,45.18
2023-05-12T12:49:18.730Z,44.57
2023-05-12T12:50:18.755Z,44.86
2023-05-12T12:51:18.773Z,44.76
2023-05-12T12:52:18.812Z,44.38
2023-05-12T12:53:18.828Z,45.32